Time;durP1;ratioP1;P1;durP2;ratioP2;P2;SDS_P1;SDS_P2;PMS_P1;PMS_P2;Temp;Humidity;BMP_temperature;BMP_pressure;BME280_temperature;BME280_humidity;BME280_pressure;Samples;Min_cycle;Max_cycle;Signal;HPM_P1;HPM_P2
2022/07/19 00:02:24;;;;;;;5.95;3.47;;;19.40;99.90;;;;;;4981341;28;20214;-92
2022/07/19 00:04:50;;;;;;;4.28;3.25;;;19.40;99.90;;;;;;4981164;28;20190;-92
2022/07/19 00:07:16;;;;;;;8.38;3.45;;;19.40;99.90;;;;;;4976908;28;20234;-92
2022/07/19 00:09:42;;;;;;;4.50;3.40;;;19.30;99.90;;;;;;4978248;28;20186;-92
2022/07/19 00:12:08;;;;;;;4.85;3.50;;;19.20;99.90;;;;;;4991781;28;20210;-92
2022/07/19 00:14:34;;;;;;;7.60;3.33;;;19.00;99.90;;;;;;4980860;28;20190;-92
2022/07/19 00:17:00;;;;;;;5.05;3.67;;;18.90;99.90;;;;;;4997340;28;20183;-92
2022/07/19 00:19:25;;;;;;;4.13;3.50;;;18.80;99.90;;;;;;4997339;28;20188;-92
2022/07/19 00:21:51;;;;;;;3.95;3.45;;;18.80;99.90;;;;;;4980907;28;20223;-92
2022/07/19 00:24:17;;;;;;;5.43;3.63;;;18.70;99.90;;;;;;4981203;28;20182;-92
2022/07/19 00:26:43;;;;;;;6.10;3.87;;;18.60;99.90;;;;;;4980988;28;20236;-92
2022/07/19 00:29:09;;;;;;;6.63;3.63;;;18.60;99.90;;;;;;4997638;28;20310;-92
2022/07/19 00:31:36;;;;;;;8.50;4.07;;;18.60;99.90;;;;;;4997058;28;20286;-92
2022/07/19 00:34:02;;;;;;;4.97;3.60;;;18.60;99.90;;;;;;4996937;28;20182;-92
2022/07/19 00:36:27;;;;;;;6.63;3.70;;;18.50;99.90;;;;;;4997183;28;20179;-92
2022/07/19 00:38:53;;;;;;;6.67;3.60;;;18.40;99.90;;;;;;4996747;28;20186;-92
2022/07/19 00:41:19;;;;;;;7.05;3.78;;;18.40;99.90;;;;;;4980212;28;20211;-93
2022/07/19 00:43:45;;;;;;;4.37;3.67;;;18.50;99.90;;;;;;4996512;28;20179;-92
2022/07/19 00:46:13;;;;;;;5.77;3.80;;;18.50;99.90;;;;;;4979960;28;20186;-92
2022/07/19 00:48:40;;;;;;;7.17;3.83;;;18.50;99.90;;;;;;4979895;28;20297;-92
2022/07/19 00:51:07;;;;;;;7.60;4.57;;;18.30;99.90;;;;;;4980151;28;20206;-93
2022/07/19 00:53:34;;;;;;;4.83;3.67;;;18.20;99.90;;;;;;4979040;28;20179;-92
2022/07/19 00:56:04;;;;;;;4.80;4.03;;;18.10;99.90;;;;;;4996644;28;20253;-93
2022/07/19 00:58:31;;;;;;;5.57;3.47;;;18.20;99.90;;;;;;4995975;28;20195;-92
2022/07/19 01:00:57;;;;;;;4.90;3.53;;;18.20;99.90;;;;;;4979511;28;20207;-92
2022/07/19 01:03:24;;;;;;;7.13;4.13;;;18.20;99.90;;;;;;4979988;28;20214;-92
2022/07/19 01:05:51;;;;;;;5.67;4.00;;;18.20;99.90;;;;;;4995922;28;20194;-92
2022/07/19 01:08:18;;;;;;;7.77;4.03;;;18.20;99.90;;;;;;4995495;28;20207;-92
2022/07/19 01:10:44;;;;;;;5.57;4.07;;;18.10;99.90;;;;;;4995867;28;20226;-92
2022/07/19 01:13:12;;;;;;;5.53;4.03;;;18.00;99.90;;;;;;4980274;28;20179;-92
2022/07/19 01:15:40;;;;;;;5.27;3.73;;;18.00;99.90;;;;;;4979769;28;20179;-92
2022/07/19 01:18:06;;;;;;;7.97;3.60;;;18.00;99.90;;;;;;4996846;28;20192;-92
2022/07/19 01:20:33;;;;;;;9.23;3.90;;;18.10;99.90;;;;;;4997272;28;20277;-92
2022/07/19 01:22:59;;;;;;;8.23;3.40;;;18.00;99.90;;;;;;4997276;28;20187;-92
2022/07/19 01:25:29;;;;;;;6.93;4.07;;;18.00;99.90;;;;;;4980864;28;20183;-92
2022/07/19 01:27:55;;;;;;;6.82;4.50;;;18.00;99.90;;;;;;4980890;28;20207;-92
2022/07/19 01:30:24;;;;;;;5.77;4.30;;;17.80;99.90;;;;;;4980634;28;20190;-92
2022/07/19 01:32:51;;;;;;;4.93;4.10;;;17.60;99.90;;;;;;4979752;28;20217;-92
2022/07/19 01:35:18;;;;;;;7.40;4.27;;;17.50;99.90;;;;;;4979174;28;20176;-92
2022/07/19 01:37:44;;;;;;;5.53;3.87;;;17.50;99.90;;;;;;4995545;28;20254;-92
2022/07/19 01:40:13;;;;;;;5.10;3.97;;;17.50;99.90;;;;;;4979121;28;20333;-93
2022/07/19 01:42:39;;;;;;;6.33;4.20;;;17.60;99.90;;;;;;4979551;28;20262;-92
2022/07/19 01:45:08;;;;;;;12.90;4.00;;;17.60;99.90;;;;;;4978749;28;20263;-92
2022/07/19 01:47:34;;;;;;;6.27;3.77;;;17.60;99.90;;;;;;4995448;28;20203;-91
2022/07/19 01:50:00;;;;;;;6.13;4.37;;;17.50;99.90;;;;;;4979839;28;20189;-92
2022/07/19 01:52:26;;;;;;;5.00;3.90;;;17.50;99.90;;;;;;4979087;28;20199;-93
2022/07/19 01:54:52;;;;;;;5.43;4.13;;;17.30;99.90;;;;;;4979073;28;20179;-91
2022/07/19 01:57:18;;;;;;;5.73;3.63;;;17.30;99.90;;;;;;4978291;28;20252;-92
2022/07/19 01:59:44;;;;;;;6.30;4.10;;;17.10;99.90;;;;;;4979019;28;20215;-92
2022/07/19 02:02:10;;;;;;;11.80;4.20;;;17.00;99.90;;;;;;4995165;28;20202;-92
2022/07/19 02:04:36;;;;;;;4.30;3.50;;;17.00;99.90;;;;;;4978120;28;20183;-92
2022/07/19 02:07:02;;;;;;;4.57;3.53;;;17.00;99.90;;;;;;4978692;28;20188;-92
2022/07/19 02:09:28;;;;;;;5.37;4.10;;;17.00;99.90;;;;;;4994767;28;20287;-91
2022/07/19 02:11:54;;;;;;;6.50;3.90;;;17.20;99.90;;;;;;4978980;28;20214;-92
2022/07/19 02:14:20;;;;;;;4.50;3.90;;;17.20;99.90;;;;;;4994955;28;20179;-92
2022/07/19 02:16:46;;;;;;;4.63;3.90;;;17.40;99.90;;;;;;4995366;28;20236;-92
2022/07/19 02:19:12;;;;;;;5.13;3.90;;;17.40;99.90;;;;;;4995274;28;20242;-92
2022/07/19 02:21:38;;;;;;;5.60;4.20;;;17.40;99.90;;;;;;4995126;28;20234;-92
2022/07/19 02:24:07;;;;;;;3.97;3.60;;;17.40;99.90;;;;;;4978470;28;20195;-93
2022/07/19 02:26:34;;;;;;;4.43;3.80;;;17.30;99.90;;;;;;4994559;28;20744;-92
2022/07/19 02:29:00;;;;;;;4.30;3.70;;;17.30;99.90;;;;;;4978602;28;20740;-92
2022/07/19 02:31:26;;;;;;;4.37;3.90;;;17.30;99.90;;;;;;4978348;28;20207;-92
2022/07/19 02:33:52;;;;;;;4.10;3.70;;;17.20;99.90;;;;;;4978333;28;20176;-92
2022/07/19 02:36:18;;;;;;;4.90;4.00;;;17.10;99.90;;;;;;4978208;28;20179;-92
2022/07/19 02:38:44;;;;;;;4.77;3.60;;;17.10;99.90;;;;;;4978216;28;20183;-92
2022/07/19 02:41:11;;;;;;;6.83;3.67;;;17.00;99.90;;;;;;4993967;28;20223;-92
2022/07/19 02:43:37;;;;;;;4.33;3.93;;;17.00;99.90;;;;;;4978384;28;20294;-92
2022/07/19 02:46:03;;;;;;;4.57;3.57;;;17.00;99.90;;;;;;4978164;28;20219;-92
2022/07/19 02:48:30;;;;;;;5.60;3.90;;;17.00;99.90;;;;;;4978152;28;20211;-92
2022/07/19 02:50:56;;;;;;;5.43;4.13;;;16.90;99.90;;;;;;4978365;28;20262;-92
2022/07/19 02:53:22;;;;;;;8.90;4.07;;;16.80;99.90;;;;;;4978106;28;20322;-92
2022/07/19 02:55:48;;;;;;;4.57;3.93;;;16.80;99.90;;;;;;4978247;28;20184;-92
2022/07/19 02:58:14;;;;;;;6.27;3.90;;;16.80;99.90;;;;;;4978303;28;20284;-92
2022/07/19 03:00:40;;;;;;;7.97;3.83;;;16.80;99.90;;;;;;4977839;28;20212;-92
2022/07/19 03:05:50;;;;;;;6.03;4.60;;;16.80;99.90;;;;;;4993939;28;20194;-91
2022/07/19 03:08:17;;;;;;;5.57;4.20;;;16.70;99.90;;;;;;4978009;28;20214;-92
2022/07/19 03:10:43;;;;;;;6.83;4.30;;;16.70;99.90;;;;;;4993988;28;20257;-92
2022/07/19 03:13:09;;;;;;;6.47;4.30;;;16.60;99.90;;;;;;4994627;28;20267;-92
2022/07/19 03:15:36;;;;;;;8.13;4.20;;;16.60;99.90;;;;;;4995688;28;20266;-92
2022/07/19 03:18:03;;;;;;;6.10;4.17;;;16.60;99.90;;;;;;4977889;28;20188;-92
2022/07/19 03:20:29;;;;;;;4.73;4.00;;;16.50;99.90;;;;;;4977827;28;20183;-92
2022/07/19 03:22:54;;;;;;;6.33;4.27;;;16.30;99.90;;;;;;4994931;28;20206;-92
2022/07/19 03:25:21;;;;;;;6.00;4.10;;;16.30;99.90;;;;;;4994740;28;20187;-92
2022/07/19 03:27:48;;;;;;;6.90;4.60;;;16.20;99.90;;;;;;4978053;28;20203;-92
2022/07/19 03:30:14;;;;;;;6.90;4.17;;;16.20;99.90;;;;;;4977397;28;20241;-92
2022/07/19 03:32:40;;;;;;;4.53;4.10;;;16.20;99.90;;;;;;4977402;28;20203;-91
2022/07/19 03:35:10;;;;;;;8.63;4.57;;;16.20;99.90;;;;;;4977906;28;20635;-92
2022/07/19 03:37:36;;;;;;;4.37;3.97;;;16.20;99.90;;;;;;4980375;28;20191;-92
2022/07/19 03:40:02;;;;;;;8.17;4.70;;;16.10;99.90;;;;;;4994637;28;20172;-92
2022/07/19 03:42:38;;;;;;;6.00;4.13;;;16.10;99.90;;;;;;4998001;28;20238;-91
2022/07/19 03:45:07;;;;;;;5.07;3.80;;;16.00;99.90;;;;;;4999460;28;20252;-92
2022/07/19 03:47:32;;;;;;;5.73;3.90;;;15.90;99.90;;;;;;4979615;28;20225;-91
2022/07/19 03:49:58;;;;;;;6.03;3.80;;;15.80;99.90;;;;;;4995266;28;20215;-92
2022/07/19 03:52:25;;;;;;;9.07;4.23;;;15.80;99.90;;;;;;4979327;28;20281;-90
2022/07/19 03:54:51;;;;;;;5.50;4.10;;;15.80;99.90;;;;;;4997141;28;20258;-92
2022/07/19 03:57:17;;;;;;;4.53;3.97;;;15.80;99.90;;;;;;4995980;28;20210;-92
2022/07/19 03:59:43;;;;;;;6.00;3.93;;;15.80;99.90;;;;;;4991689;28;20183;-91
2022/07/19 04:02:09;;;;;;;6.80;4.50;;;15.80;99.90;;;;;;4990890;28;20298;-92
2022/07/19 04:04:35;;;;;;;4.37;3.97;;;15.80;99.90;;;;;;4993092;28;20187;-91
2022/07/19 04:07:00;;;;;;;7.07;3.93;;;15.80;99.90;;;;;;4993769;28;20318;-92
2022/07/19 04:09:26;;;;;;;5.10;4.43;;;15.80;99.90;;;;;;4977324;28;20182;-92
2022/07/19 04:11:59;;;;;;;4.87;4.23;;;15.90;99.90;;;;;;4991732;28;20199;-91
2022/07/19 04:14:25;;;;;;;4.50;4.10;;;15.90;99.90;;;;;;4993919;28;20171;-91
2022/07/19 04:16:51;;;;;;;6.60;4.17;;;16.00;99.90;;;;;;4994149;28;20274;-92
2022/07/19 04:19:17;;;;;;;5.30;4.10;;;15.90;99.90;;;;;;4978472;28;20253;-92
2022/07/19 04:21:46;;;;;;;4.73;4.20;;;15.80;99.90;;;;;;4979215;28;20207;-85
2022/07/19 04:24:11;;;;;;;5.10;3.90;;;15.80;99.90;;;;;;4977686;28;20191;-85
2022/07/19 04:26:38;;;;;;;6.03;4.30;;;15.90;99.90;;;;;;4978096;28;20218;-83
2022/07/19 04:29:04;;;;;;;7.37;4.07;;;15.80;99.90;;;;;;4979598;28;20238;-84
2022/07/19 04:31:29;;;;;;;5.40;3.97;;;15.80;99.90;;;;;;4997967;28;20230;-85
2022/07/19 04:33:55;;;;;;;5.00;3.90;;;15.80;99.90;;;;;;4997680;28;20190;-85
2022/07/19 04:37:08;;;;;;;6.17;4.47;;;15.80;99.90;;;;;;4998537;28;20219;-92
2022/07/19 04:39:34;;;;;;;6.43;4.03;;;15.90;99.90;;;;;;4999387;28;20175;-91
2022/07/19 04:42:00;;;;;;;6.33;4.47;;;15.90;99.90;;;;;;4998409;28;20229;-91
2022/07/19 04:44:26;;;;;;;7.90;4.70;;;15.90;99.90;;;;;;4982949;28;20186;-91
2022/07/19 04:46:52;;;;;;;5.10;4.60;;;15.80;99.90;;;;;;4984530;28;20183;-91
2022/07/19 04:49:26;;;;;;;7.87;5.00;;;15.80;99.90;;;;;;5001513;28;20215;-90
2022/07/19 04:51:52;;;;;;;5.20;4.70;;;15.90;99.90;;;;;;4998744;28;20202;-90
2022/07/19 04:54:19;;;;;;;5.30;4.47;;;15.90;99.90;;;;;;4982136;28;20255;-91
2022/07/19 04:56:45;;;;;;;6.67;4.77;;;15.90;99.90;;;;;;4999214;28;20234;-90
2022/07/19 04:59:21;;;;;;;5.23;4.10;;;16.00;99.90;;;;;;4998544;28;20187;-90
2022/07/19 05:02:02;;;;;;;7.90;4.73;;;16.20;99.90;;;;;;4997480;28;20249;-91
2022/07/19 05:04:28;;;;;;;8.43;4.50;;;16.30;99.90;;;;;;4982747;28;20237;-90
2022/07/19 05:06:56;;;;;;;5.37;4.33;;;16.40;99.90;;;;;;4982058;28;20230;-81
2022/07/19 05:09:27;;;;;;;7.13;4.67;;;16.40;99.90;;;;;;4998741;28;20180;-91
2022/07/19 05:11:56;;;;;;;5.53;4.63;;;16.50;99.90;;;;;;4982274;28;20203;-91
2022/07/19 05:14:23;;;;;;;4.50;4.10;;;16.60;99.90;;;;;;4982276;28;20187;-91
2022/07/19 05:16:49;;;;;;;8.60;4.87;;;16.80;99.90;;;;;;4981446;28;20183;-91
2022/07/19 05:19:16;;;;;;;5.97;4.47;;;16.80;99.90;;;;;;4981473;28;20179;-90
2022/07/19 05:21:43;;;;;;;6.03;4.70;;;16.90;99.90;;;;;;4981743;28;20290;-90
2022/07/19 05:24:10;;;;;;;4.93;3.93;;;17.10;99.90;;;;;;4997532;28;20172;-91
2022/07/19 05:26:36;;;;;;;5.63;4.87;;;17.20;99.90;;;;;;4982324;28;20187;-91
2022/07/19 05:29:03;;;;;;;7.20;4.77;;;17.30;99.90;;;;;;4982478;28;20203;-90
2022/07/19 05:31:29;;;;;;;5.43;4.70;;;17.40;99.90;;;;;;4985161;28;20202;-86
2022/07/19 05:33:56;;;;;;;5.23;4.67;;;17.50;99.90;;;;;;4983977;28;20202;-90
2022/07/19 05:36:21;;;;;;;6.37;4.60;;;17.60;99.90;;;;;;4985635;28;20175;-91
2022/07/19 05:38:47;;;;;;;8.00;5.07;;;17.80;99.90;;;;;;4982093;28;20245;-91
2022/07/19 05:41:15;;;;;;;7.03;5.10;;;17.90;99.90;;;;;;4980867;28;20219;-91
2022/07/19 05:43:42;;;;;;;6.53;4.80;;;18.10;99.90;;;;;;4982147;28;20175;-90
2022/07/19 05:46:09;;;;;;;7.03;5.55;;;18.20;99.90;;;;;;4982246;28;20199;-91
2022/07/19 05:48:35;;;;;;;6.43;5.50;;;18.30;99.90;;;;;;4981083;28;20203;-90
2022/07/19 05:51:01;;;;;;;5.93;5.33;;;18.30;99.90;;;;;;4978978;28;20204;-91
2022/07/19 05:53:27;;;;;;;6.10;5.50;;;18.40;99.90;;;;;;4978202;28;20266;-91
2022/07/19 05:55:54;;;;;;;9.83;5.53;;;18.50;99.90;;;;;;4982012;28;20187;-91
2022/07/19 05:58:43;;;;;;;6.03;5.33;;;18.60;99.90;;;;;;4981044;28;20179;-91
2022/07/19 06:01:17;;;;;;;6.32;5.38;;;18.70;99.90;;;;;;4986516;28;20298;-91
2022/07/19 06:03:47;;;;;;;6.65;5.10;;;18.90;99.90;;;;;;4979857;28;20179;-92
2022/07/19 06:06:13;;;;;;;5.53;4.93;;;19.00;99.90;;;;;;4997652;28;20187;-83
2022/07/19 06:08:40;;;;;;;8.27;6.18;;;19.10;99.90;;;;;;4996244;28;20290;-91
2022/07/19 06:11:06;;;;;;;7.72;5.63;;;19.30;99.90;;;;;;4995576;28;20199;-91
2022/07/19 06:13:32;;;;;;;6.70;5.70;;;19.40;99.90;;;;;;4993726;28;20180;-91
2022/07/19 06:15:57;;;;;;;6.18;5.57;;;19.60;99.90;;;;;;4994313;28;20186;-91
2022/07/19 06:18:23;;;;;;;5.45;4.85;;;19.80;99.90;;;;;;4994116;28;20179;-91
2022/07/19 06:20:49;;;;;;;6.82;5.47;;;19.90;99.90;;;;;;4994098;28;20276;-91
2022/07/19 06:23:15;;;;;;;5.65;4.55;;;20.10;99.90;;;;;;4993481;28;20270;-92
2022/07/19 06:25:41;;;;;;;5.22;4.82;;;20.30;99.90;;;;;;4993566;28;20183;-92
2022/07/19 06:28:07;;;;;;;6.93;5.40;;;20.50;99.90;;;;;;4995173;28;20203;-92
2022/07/19 06:30:33;;;;;;;7.30;5.32;;;20.70;99.90;;;;;;4995793;28;20671;-92
2022/07/19 06:32:59;;;;;;;5.57;4.90;;;20.90;99.90;;;;;;4995786;28;20207;-93
2022/07/19 06:35:25;;;;;;;6.95;5.28;;;21.20;99.90;;;;;;4997145;28;20190;-93
2022/07/19 06:37:51;;;;;;;4.75;4.35;;;21.40;99.90;;;;;;4997585;28;20183;-93
2022/07/19 06:40:17;;;;;;;7.35;4.70;;;21.40;99.90;;;;;;4997559;28;20183;-93
2022/07/19 06:42:43;;;;;;;5.00;4.55;;;21.60;99.90;;;;;;4997003;28;20310;-92
2022/07/19 06:45:09;;;;;;;5.43;4.60;;;21.80;99.90;;;;;;4997039;28;20183;-92
2022/07/19 06:47:36;;;;;;;6.25;4.38;;;22.00;99.90;;;;;;4996978;28;20243;-92
2022/07/19 06:50:02;;;;;;;5.80;4.57;;;22.20;99.90;;;;;;4997135;28;20635;-92
2022/07/19 06:52:28;;;;;;;4.63;4.22;;;22.40;99.90;;;;;;4996538;28;20187;-92
2022/07/19 06:54:54;;;;;;;5.40;4.47;;;22.50;99.90;;;;;;4995499;28;20179;-91
2022/07/19 06:57:20;;;;;;;5.30;4.30;;;22.60;99.90;;;;;;4980709;28;20182;-92
2022/07/19 06:59:46;;;;;;;5.70;4.60;;;22.80;99.90;;;;;;4996957;28;20179;-92
2022/07/19 07:02:12;;;;;;;4.55;4.15;;;22.90;99.90;;;;;;4980492;28;20206;-92
2022/07/19 07:04:37;;;;;;;7.22;4.53;;;23.10;99.90;;;;;;4980643;28;20179;-92
2022/07/19 07:07:03;;;;;;;5.85;4.47;;;23.20;99.90;;;;;;4980196;28;20186;-92
2022/07/19 07:09:29;;;;;;;6.82;4.30;;;23.40;99.90;;;;;;4980299;28;20190;-92
2022/07/19 07:11:55;;;;;;;4.43;4.03;;;23.40;99.90;;;;;;4980544;28;20206;-93
2022/07/19 07:14:21;;;;;;;5.72;4.20;;;23.60;99.90;;;;;;4981277;28;20215;-93
2022/07/19 07:16:47;;;;;;;4.78;4.30;;;23.60;99.90;;;;;;4980447;28;20180;-92
2022/07/19 07:19:13;;;;;;;5.15;4.57;;;23.80;99.90;;;;;;4980403;28;20183;-92
2022/07/19 07:21:38;;;;;;;5.15;4.05;;;23.90;99.90;;;;;;4980108;28;20195;-92
2022/07/19 07:24:05;;;;;;;5.53;3.88;;;24.00;99.90;;;;;;4979933;28;20236;-93
2022/07/19 07:26:31;;;;;;;5.90;4.70;;;24.20;99.90;;;;;;4980313;28;20266;-93
2022/07/19 07:28:58;;;;;;;6.13;4.30;;;24.30;99.90;;;;;;4997172;28;20207;-92
2022/07/19 07:31:24;;;;;;;4.63;4.22;;;24.50;99.90;;;;;;4979576;28;20294;-92
2022/07/19 07:33:50;;;;;;;6.15;4.55;;;24.70;99.80;;;;;;4979722;28;20266;-92
2022/07/19 07:36:16;;;;;;;6.07;4.05;;;24.80;99.70;;;;;;4979893;28;20175;-92
2022/07/19 07:38:42;;;;;;;5.38;3.88;;;25.00;99.90;;;;;;4979724;28;20175;-92
2022/07/19 07:41:08;;;;;;;6.15;3.88;;;25.10;99.00;;;;;;4979712;28;20209;-92
2022/07/19 07:43:35;;;;;;;5.10;4.00;;;25.30;98.80;;;;;;4980095;28;20228;-93
2022/07/19 07:46:01;;;;;;;5.05;4.15;;;25.40;98.70;;;;;;4979882;28;20632;-92
2022/07/19 07:48:27;;;;;;;4.65;4.22;;;25.60;98.80;;;;;;4979690;28;20214;-92
2022/07/19 07:50:53;;;;;;;4.18;3.78;;;25.60;98.50;;;;;;4979695;28;20231;-92
2022/07/19 07:53:19;;;;;;;4.60;4.10;;;25.80;98.00;;;;;;4980118;28;20176;-92
2022/07/19 07:55:45;;;;;;;4.32;3.92;;;25.90;97.80;;;;;;4979466;28;20270;-93
2022/07/19 07:58:39;;;;;;;4.70;4.07;;;26.00;97.40;;;;;;4979599;28;20278;-92
2022/07/19 08:01:05;;;;;;;4.10;3.80;;;26.10;98.20;;;;;;4979845;28;20206;-92
2022/07/19 08:03:32;;;;;;;5.15;3.97;;;26.30;98.10;;;;;;4981194;28;20266;-92
2022/07/19 08:05:58;;;;;;;4.38;3.97;;;26.40;96.50;;;;;;4983661;28;20207;-92
2022/07/19 08:08:29;;;;;;;4.10;3.50;;;26.60;96.60;;;;;;4983649;28;20246;-92
2022/07/19 08:10:55;;;;;;;4.80;3.92;;;26.80;96.20;;;;;;4983635;28;20232;-93
2022/07/19 08:13:22;;;;;;;3.88;3.55;;;27.00;95.50;;;;;;4983836;28;20205;-92
2022/07/19 08:15:48;;;;;;;5.30;3.60;;;27.00;95.40;;;;;;4983442;28;20179;-93
2022/07/19 08:18:14;;;;;;;4.40;3.63;;;27.20;95.70;;;;;;4983625;28;20261;-93
2022/07/19 08:20:40;;;;;;;3.55;3.25;;;27.40;95.60;;;;;;4999833;28;20210;-92
2022/07/19 08:23:06;;;;;;;4.50;3.50;;;27.60;95.10;;;;;;4983592;28;20628;-92
2022/07/19 08:25:34;;;;;;;3.40;3.10;;;27.80;94.50;;;;;;4999862;28;20226;-93
2022/07/19 08:28:01;;;;;;;4.78;3.03;;;27.90;94.00;;;;;;4983156;28;20203;-92
2022/07/19 08:30:27;;;;;;;4.25;3.13;;;28.20;93.50;;;;;;4983446;28;20186;-93
2022/07/19 08:33:12;;;;;;;5.20;3.40;;;28.50;92.70;;;;;;4983164;28;20202;-92
2022/07/19 08:35:38;;;;;;;5.25;3.40;;;28.70;93.30;;;;;;4983351;28;20164;-93
2022/07/19 08:38:04;;;;;;;4.82;3.20;;;28.90;93.20;;;;;;4983280;28;20205;-93
2022/07/19 08:40:33;;;;;;;3.95;3.33;;;29.20;92.80;;;;;;4982964;28;20187;-93
2022/07/19 08:43:04;;;;;;;4.00;3.10;;;29.40;91.80;;;;;;4982984;28;20198;-93
2022/07/19 08:45:31;;;;;;;3.65;3.15;;;29.50;90.50;;;;;;4983107;28;20164;-93
2022/07/19 08:48:00;;;;;;;3.42;3.10;;;29.70;91.20;;;;;;4983070;28;20214;-92
2022/07/19 08:50:26;;;;;;;3.10;2.80;;;29.70;90.10;;;;;;4983428;28;20194;-93
2022/07/19 08:52:53;;;;;;;4.03;2.90;;;30.10;90.10;;;;;;4982782;28;20191;-93
2022/07/19 08:55:19;;;;;;;4.57;3.17;;;30.20;89.50;;;;;;4982855;28;20179;-93
2022/07/19 08:57:57;;;;;;;4.63;2.90;;;30.30;88.50;;;;;;4981942;28;20225;-93
2022/07/19 09:00:31;;;;;;;4.22;2.80;;;30.30;84.80;;;;;;4983164;28;20198;-92
2022/07/19 09:03:07;;;;;;;3.70;2.97;;;30.50;85.40;;;;;;4982488;28;20271;-93
2022/07/19 09:05:44;;;;;;;6.05;2.75;;;30.40;85.90;;;;;;4982664;28;20179;-92
2022/07/19 09:08:50;;;;;;;4.35;2.78;;;30.70;86.30;;;;;;4982743;28;20221;-93
2022/07/19 09:11:32;;;;;;;4.07;2.53;;;31.00;83.50;;;;;;4982376;28;20210;-93
2022/07/19 09:14:04;;;;;;;3.63;2.70;;;31.30;82.10;;;;;;4981900;28;20167;-93
2022/07/19 09:16:49;;;;;;;3.95;2.50;;;31.50;80.10;;;;;;4982607;28;20175;-94
2022/07/19 09:19:31;;;;;;;4.45;3.00;;;31.60;77.30;;;;;;4982592;28;20179;-93
2022/07/19 09:22:07;;;;;;;4.55;2.50;;;31.80;78.90;;;;;;4982577;28;20226;-93
2022/07/19 09:24:39;;;;;;;2.85;2.50;;;31.90;75.40;;;;;;4982784;28;20263;-93
2022/07/19 09:27:14;;;;;;;4.80;2.58;;;32.10;74.10;;;;;;4983893;28;20187;-93
2022/07/19 09:29:47;;;;;;;3.83;2.58;;;32.20;74.50;;;;;;4999363;28;20217;-93
2022/07/19 09:32:18;;;;;;;4.90;3.05;;;32.40;73.00;;;;;;4983388;28;20199;-93
2022/07/19 09:34:58;;;;;;;2.60;2.40;;;32.60;72.00;;;;;;4987079;28;20179;-94
2022/07/19 09:37:27;;;;;;;3.53;2.47;;;32.70;74.10;;;;;;4989470;28;20190;-91
2022/07/19 09:39:58;;;;;;;3.00;2.72;;;32.80;71.10;;;;;;5002856;28;20242;-91
2022/07/19 09:42:35;;;;;;;3.78;2.70;;;32.80;70.00;;;;;;5001996;28;20211;-91
2022/07/19 09:45:04;;;;;;;4.15;2.50;;;32.90;67.20;;;;;;4979009;28;20238;-91
2022/07/19 09:47:35;;;;;;;2.90;2.58;;;32.90;69.20;;;;;;4993481;28;20203;-91
2022/07/19 09:50:04;;;;;;;2.70;2.50;;;32.90;66.70;;;;;;4979570;28;20175;-91
2022/07/19 09:52:36;;;;;;;2.80;2.60;;;32.90;67.10;;;;;;4996794;28;20203;-91
2022/07/19 09:55:16;;;;;;;2.72;2.53;;;33.00;66.70;;;;;;4999558;28;20166;-90
2022/07/19 09:57:46;;;;;;;2.75;2.53;;;33.30;65.60;;;;;;4996337;28;20284;-90
2022/07/19 10:00:14;;;;;;;3.60;2.50;;;33.50;66.90;;;;;;4979045;28;20262;-91
2022/07/19 10:02:52;;;;;;;3.60;2.55;;;33.70;66.90;;;;;;4986970;28;20207;-90
2022/07/19 10:05:21;;;;;;;5.93;2.75;;;33.80;64.60;;;;;;4995320;28;20183;-90
2022/07/19 10:07:48;;;;;;;3.33;2.60;;;33.90;64.10;;;;;;4995036;28;20214;-91
2022/07/19 10:10:16;;;;;;;5.78;2.75;;;33.90;64.00;;;;;;4995334;28;20176;-91
2022/07/19 10:12:45;;;;;;;5.05;2.90;;;34.00;63.50;;;;;;4995038;28;20270;-91
2022/07/19 10:15:14;;;;;;;2.67;2.38;;;34.10;64.10;;;;;;4979182;28;20183;-90
2022/07/19 10:18:11;;;;;;;3.50;2.63;;;34.20;62.90;;;;;;4980034;28;20183;-90
2022/07/19 10:20:39;;;;;;;3.30;2.30;;;34.40;63.50;;;;;;4990790;28;20293;-91
2022/07/19 10:23:07;;;;;;;3.42;2.70;;;34.50;64.50;;;;;;4996260;28;20203;-90
2022/07/19 10:25:47;;;;;;;4.50;2.67;;;34.50;62.00;;;;;;4995218;28;20187;-91
2022/07/19 10:28:46;;;;;;;4.88;2.60;;;34.30;62.90;;;;;;4981566;28;20203;-90
2022/07/19 10:31:27;;;;;;;5.22;2.65;;;34.40;62.80;;;;;;4966977;28;20199;-91
2022/07/19 10:34:08;;;;;;;4.55;2.88;;;34.50;61.60;;;;;;4978568;28;20187;-90
2022/07/19 10:37:00;;;;;;;3.22;2.90;;;34.50;62.80;;;;;;4995002;28;20187;-91
2022/07/19 10:39:33;;;;;;;4.88;2.60;;;34.70;61.50;;;;;;4976140;28;20214;-91
2022/07/19 10:42:18;;;;;;;3.45;2.65;;;34.80;61.50;;;;;;4994327;28;20218;-93
2022/07/19 10:44:56;;;;;;;3.78;2.97;;;34.90;61.00;;;;;;4994421;28;20179;-91
2022/07/19 10:47:31;;;;;;;5.15;3.03;;;35.20;60.70;;;;;;4994525;28;20175;-91
2022/07/19 10:50:05;;;;;;;2.78;2.58;;;35.40;61.10;;;;;;4994232;28;20186;-91
2022/07/19 10:52:34;;;;;;;2.90;2.70;;;35.60;61.40;;;;;;4993838;28;20286;-91
2022/07/19 10:55:20;;;;;;;5.18;2.90;;;35.60;60.50;;;;;;4994088;28;20190;-91
2022/07/19 10:58:06;;;;;;;4.00;2.78;;;35.60;58.40;;;;;;4994434;28;20183;-91
2022/07/19 11:00:41;;;;;;;3.90;2.95;;;35.50;59.40;;;;;;4961535;28;20198;-91
2022/07/19 11:03:22;;;;;;;4.13;3.03;;;35.60;59.20;;;;;;4993614;28;20178;-91
2022/07/19 11:05:54;;;;;;;4.65;2.70;;;35.70;58.50;;;;;;4973913;28;20183;-91
2022/07/19 11:08:37;;;;;;;3.97;3.00;;;35.90;58.70;;;;;;5004094;28;20206;-91
2022/07/19 11:11:03;;;;;;;4.70;2.67;;;35.80;57.20;;;;;;4984037;28;20191;-91
2022/07/19 11:13:29;;;;;;;3.63;2.90;;;35.90;57.20;;;;;;4974790;28;20270;-91
2022/07/19 11:15:56;;;;;;;3.58;2.83;;;36.10;58.90;;;;;;4995048;28;20179;-92
2022/07/19 11:18:23;;;;;;;3.92;3.03;;;35.90;57.70;;;;;;4976656;28;20187;-91
2022/07/19 11:20:49;;;;;;;7.85;3.22;;;36.20;58.20;;;;;;4994730;28;20227;-91
2022/07/19 11:23:20;;;;;;;6.28;3.10;;;36.40;57.10;;;;;;4978869;28;20306;-86
2022/07/19 11:25:50;;;;;;;4.85;2.72;;;36.30;58.10;;;;;;4995793;28;20179;-91
2022/07/19 11:28:23;;;;;;;4.28;3.15;;;36.30;56.00;;;;;;4993003;28;20245;-91
2022/07/19 11:30:50;;;;;;;3.95;3.03;;;36.20;58.10;;;;;;4999844;28;20222;-92
2022/07/19 11:33:18;;;;;;;3.85;2.88;;;36.40;57.20;;;;;;4991297;28;20182;-91
2022/07/19 11:35:58;;;;;;;5.70;2.67;;;36.40;57.00;;;;;;4968987;28;20183;-92
2022/07/19 11:38:33;;;;;;;6.15;2.97;;;36.50;57.30;;;;;;4986442;28;20332;-92
2022/07/19 11:40:59;;;;;;;7.13;3.38;;;36.70;57.80;;;;;;4977724;28;20199;-92
2022/07/19 11:43:29;;;;;;;4.95;3.00;;;37.00;57.40;;;;;;4977679;28;20274;-92
2022/07/19 11:45:55;;;;;;;5.35;3.42;;;36.90;56.90;;;;;;4994792;28;20180;-92
2022/07/19 11:48:30;;;;;;;6.20;2.95;;;36.90;55.50;;;;;;4995981;28;20245;-92
2022/07/19 11:51:08;;;;;;;3.63;3.10;;;37.00;55.50;;;;;;4994547;28;20214;-92
2022/07/19 11:53:36;;;;;;;6.28;3.08;;;37.10;55.10;;;;;;4994537;28;20171;-92
2022/07/19 11:56:05;;;;;;;4.65;3.20;;;37.30;56.10;;;;;;4995337;28;20168;-92
2022/07/19 11:58:32;;;;;;;4.20;3.00;;;37.40;56.20;;;;;;4978933;28;20176;-92
2022/07/19 12:01:05;;;;;;;4.03;3.10;;;37.60;56.70;;;;;;4978503;28;20198;-85
2022/07/19 12:03:36;;;;;;;5.75;3.30;;;37.70;55.20;;;;;;4978319;28;20171;-92
2022/07/19 12:06:09;;;;;;;3.58;3.28;;;37.80;55.50;;;;;;4998317;28;20179;-92
2022/07/19 12:08:42;;;;;;;6.00;3.20;;;38.00;55.40;;;;;;4987204;28;20202;-93
2022/07/19 12:11:23;;;;;;;4.43;3.30;;;38.00;54.60;;;;;;4994777;28;20206;-92
2022/07/19 12:13:51;;;;;;;5.32;3.40;;;38.10;54.70;;;;;;5001917;28;20313;-92
2022/07/19 12:16:22;;;;;;;4.68;3.30;;;38.00;55.30;;;;;;5003432;28;20237;-92
2022/07/19 12:19:00;;;;;;;4.07;3.10;;;37.80;54.90;;;;;;4994257;28;20179;-93
2022/07/19 12:21:34;;;;;;;4.38;2.85;;;37.60;54.90;;;;;;5007789;28;20213;-93
2022/07/19 12:24:30;;;;;;;7.20;3.28;;;37.70;55.70;;;;;;4999655;28;20175;-93
2022/07/19 12:27:07;;;;;;;4.70;3.15;;;37.70;56.30;;;;;;4975631;28;20233;-92
2022/07/19 12:29:50;;;;;;;5.47;3.20;;;37.80;54.80;;;;;;4976050;28;20234;-93
2022/07/19 12:32:29;;;;;;;3.83;3.15;;;38.00;54.70;;;;;;4989997;28;20204;-92
2022/07/19 12:35:10;;;;;;;4.53;3.30;;;38.10;54.90;;;;;;4976517;28;20211;-93
2022/07/19 12:37:42;;;;;;;3.55;3.13;;;38.30;54.60;;;;;;4990908;28;20183;-92
2022/07/19 12:40:11;;;;;;;4.50;3.08;;;38.40;54.30;;;;;;4991961;28;20179;-93
2022/07/19 12:42:46;;;;;;;4.38;3.08;;;38.40;54.80;;;;;;5001405;28;20257;-93
2022/07/19 12:45:20;;;;;;;3.55;3.10;;;38.60;53.70;;;;;;4977452;28;20178;-93
2022/07/19 12:47:47;;;;;;;3.63;2.90;;;38.70;54.00;;;;;;4994253;28;20221;-93
2022/07/19 12:50:27;;;;;;;2.92;2.58;;;38.70;54.00;;;;;;4996656;28;20198;-92
2022/07/19 12:52:55;;;;;;;5.75;2.88;;;38.80;53.10;;;;;;4991563;28;20270;-92
2022/07/19 12:55:23;;;;;;;4.70;2.88;;;38.90;52.60;;;;;;4985477;28;20180;-93
2022/07/19 12:57:50;;;;;;;3.38;2.92;;;38.80;52.40;;;;;;4979729;28;20189;-93
2022/07/19 13:00:18;;;;;;;7.03;2.88;;;38.60;52.70;;;;;;4984375;28;20191;-93
2022/07/19 13:02:46;;;;;;;4.20;2.70;;;38.70;53.70;;;;;;4989175;28;20260;-93